Time;durP1;ratioP1;P1;durP2;ratioP2;P2;SDS_P1;SDS_P2;PMS_P1;PMS_P2;Temp;Humidity;BMP_temperature;BMP_pressure;BME280_temperature;BME280_humidity;BME280_pressure;Samples;Min_cycle;Max_cycle;Signal;HPM_P1;HPM_P2
2023/01/25 17:02:55;;;;;;;72.72;17.58;;;;;;;;;;6259539;22;20019;-94
2023/01/25 17:05:21;;;;;;;79.30;21.33;;;;;;;;;;6258204;22;20403;-93
2023/01/25 17:07:50;;;;;;;77.93;21.50;;;;;;;;;;6231604;22;20375;-94
2023/01/25 17:10:16;;;;;;;60.58;15.15;;;;;;;;;;6231027;22;20003;-96
2023/01/25 17:12:44;;;;;;;39.53;12.93;;;;;;;;;;6256355;22;20051;-96
2023/01/25 17:15:10;;;;;;;45.10;13.95;;;;;;;;;;6230962;22;20007;-94
2023/01/25 17:17:36;;;;;;;59.50;18.05;;;;;;;;;;6231034;22;20008;-94
2023/01/25 17:20:03;;;;;;;63.95;17.58;;;;;;;;;;6231522;22;20012;-94
2023/01/25 17:22:36;;;;;;;56.75;14.07;;;;;;;;;;6230983;22;20011;-94
2023/01/25 17:25:02;;;;;;;90.10;24.98;;;;;;;;;;6256412;22;20091;-96
2023/01/25 17:27:28;;;;;;;89.72;23.05;;;;;;;;;;6230559;22;20068;-94
2023/01/25 17:29:54;;;;;;;101.28;25.63;;;;;;;;;;6255859;22;20004;-96
2023/01/25 17:32:20;;;;;;;84.10;23.67;;;;;;;;;;6231816;22;20007;-95
2023/01/25 17:34:46;;;;;;;77.18;24.55;;;;;;;;;;6231916;22;20007;-95
2023/01/25 17:37:12;;;;;;;51.10;16.50;;;;;;;;;;6232144;22;20455;-94
2023/01/25 17:39:38;;;;;;;59.13;16.92;;;;;;;;;;6232066;22;20018;-94
2023/01/25 17:42:05;;;;;;;100.22;22.77;;;;;;;;;;6230745;22;20071;-95
2023/01/25 17:44:31;;;;;;;103.45;26.27;;;;;;;;;;6228570;22;20007;-95
2023/01/25 17:46:58;;;;;;;101.35;25.45;;;;;;;;;;6201469;23;20428;-95
2023/01/25 17:49:25;;;;;;;60.92;16.85;;;;;;;;;;6201248;23;20004;-95
2023/01/25 17:52:00;;;;;;;51.88;15.02;;;;;;;;;;6204844;23;20016;-95
2023/01/25 17:54:27;;;;;;;78.13;22.02;;;;;;;;;;6202060;23;20439;-96
2023/01/25 17:56:53;;;;;;;62.20;18.23;;;;;;;;;;6200532;23;20012;-94
2023/01/25 17:59:20;;;;;;;50.78;10.95;;;;;;;;;;6201547;23;20015;-96
2023/01/25 18:01:47;;;;;;;81.03;22.95;;;;;;;;;;6226600;23;20004;-94
2023/01/25 18:04:25;;;;;;;75.20;22.50;;;;;;;;;;6201208;22;20096;-95
2023/01/25 18:06:51;;;;;;;67.20;21.45;;;;;;;;;;6167582;23;20088;-94
2023/01/25 18:09:17;;;;;;;100.25;26.50;;;;;;;;;;6165824;23;20021;-95
2023/01/25 18:11:46;;;;;;;50.47;17.80;;;;;;;;;;6167288;23;20344;-94
2023/01/25 18:14:15;;;;;;;58.85;16.52;;;;;;;;;;6194817;23;20024;-94
2023/01/25 18:16:42;;;;;;;73.18;21.27;;;;;;;;;;6192090;23;20009;-94
2023/01/25 18:19:08;;;;;;;83.95;21.75;;;;;;;;;;6191833;23;20429;-94
2023/01/25 18:21:35;;;;;;;81.85;20.95;;;;;;;;;;6191766;23;20060;-94
2023/01/25 18:24:04;;;;;;;88.60;23.98;;;;;;;;;;6192845;23;20001;-94
2023/01/25 18:26:35;;;;;;;88.20;26.35;;;;;;;;;;6191559;23;20011;-94
2023/01/25 18:29:14;;;;;;;56.08;16.85;;;;;;;;;;6193723;23;20005;-94
2023/01/25 18:31:41;;;;;;;82.07;22.42;;;;;;;;;;6191759;23;20012;-95
2023/01/25 18:34:07;;;;;;;62.38;17.25;;;;;;;;;;6168204;23;20005;-94
2023/01/25 18:36:33;;;;;;;62.00;17.33;;;;;;;;;;6191198;23;20009;-93
2023/01/25 18:39:00;;;;;;;56.53;14.75;;;;;;;;;;6190348;23;20060;-95
2023/01/25 18:41:26;;;;;;;55.95;16.73;;;;;;;;;;6163478;23;20033;-95
2023/01/25 18:43:52;;;;;;;80.25;19.98;;;;;;;;;;6190897;23;20059;-96
2023/01/25 18:46:18;;;;;;;69.65;19.23;;;;;;;;;;6167085;23;20020;-93
2023/01/25 18:48:45;;;;;;;81.03;19.55;;;;;;;;;;6166213;23;20009;-94
2023/01/25 18:51:14;;;;;;;63.00;17.42;;;;;;;;;;6166224;23;20453;-94
2023/01/25 18:53:41;;;;;;;57.25;16.77;;;;;;;;;;6196956;23;20063;-96
2023/01/25 18:56:11;;;;;;;78.03;22.75;;;;;;;;;;6171729;23;20035;-95
2023/01/25 18:58:37;;;;;;;94.35;21.02;;;;;;;;;;6196398;23;20004;-95
2023/01/25 19:01:08;;;;;;;53.80;16.55;;;;;;;;;;6172513;23;20021;-95
2023/01/25 19:03:34;;;;;;;80.20;22.08;;;;;;;;;;6195425;22;20013;-95
2023/01/25 19:06:00;;;;;;;82.68;21.23;;;;;;;;;;6167963;23;20009;-93
2023/01/25 19:08:27;;;;;;;30.67;11.05;;;;;;;;;;6190920;23;20397;-94
2023/01/25 19:11:01;;;;;;;40.35;12.77;;;;;;;;;;6191049;23;20005;-96
2023/01/25 19:13:27;;;;;;;90.03;24.40;;;;;;;;;;6191545;23;20067;-94
2023/01/25 19:16:04;;;;;;;98.63;23.33;;;;;;;;;;6192144;23;20426;-95
2023/01/25 19:18:31;;;;;;;67.50;17.38;;;;;;;;;;6191892;23;20009;-96
2023/01/25 19:20:58;;;;;;;82.97;21.08;;;;;;;;;;6192451;23;20012;-96
2023/01/25 19:23:24;;;;;;;98.53;26.55;;;;;;;;;;6192787;23;20444;-94
2023/01/25 19:25:54;;;;;;;58.08;17.13;;;;;;;;;;6193678;23;20401;-96
2023/01/25 19:28:21;;;;;;;53.10;12.23;;;;;;;;;;6192213;23;20337;-94
2023/01/25 19:30:47;;;;;;;86.97;21.08;;;;;;;;;;6192560;23;20338;-95
2023/01/25 19:33:13;;;;;;;50.28;16.15;;;;;;;;;;6196257;23;20016;-94
2023/01/25 19:35:39;;;;;;;91.93;24.38;;;;;;;;;;6171856;23;20507;-96
2023/01/25 19:38:05;;;;;;;70.75;20.10;;;;;;;;;;6197189;23;20313;-95
2023/01/25 19:40:31;;;;;;;94.10;24.13;;;;;;;;;;6174358;23;20425;-94
2023/01/25 19:42:57;;;;;;;71.70;18.42;;;;;;;;;;6199538;23;20009;-95
2023/01/25 19:45:23;;;;;;;88.60;24.05;;;;;;;;;;6175455;23;20018;-96
2023/01/25 19:47:49;;;;;;;31.85;11.55;;;;;;;;;;6176550;23;20008;-95
2023/01/25 19:50:15;;;;;;;107.95;25.42;;;;;;;;;;6176492;23;20011;-95
2023/01/25 19:52:44;;;;;;;109.75;25.13;;;;;;;;;;6177671;23;20016;-95
2023/01/25 19:55:11;;;;;;;58.92;19.27;;;;;;;;;;6179932;23;20004;-95
2023/01/25 19:57:37;;;;;;;111.32;26.17;;;;;;;;;;6181485;23;20008;-95
2023/01/25 20:00:06;;;;;;;78.07;20.15;;;;;;;;;;6179088;23;20062;-95
2023/01/25 20:02:32;;;;;;;85.03;20.38;;;;;;;;;;6199638;23;20016;-95
2023/01/25 20:04:58;;;;;;;97.07;26.23;;;;;;;;;;6174988;22;20007;-96
2023/01/25 20:07:26;;;;;;;124.07;26.48;;;;;;;;;;6196489;23;20051;-96
2023/01/25 20:09:52;;;;;;;63.58;16.27;;;;;;;;;;6197705;23;20511;-96
2023/01/25 20:12:18;;;;;;;106.85;26.25;;;;;;;;;;6171830;23;20012;-94
2023/01/25 20:14:44;;;;;;;114.70;28.48;;;;;;;;;;6195555;23;20019;-95
2023/01/25 20:17:11;;;;;;;74.43;20.83;;;;;;;;;;6196908;23;20004;-95
2023/01/25 20:19:37;;;;;;;45.72;14.00;;;;;;;;;;6171698;23;20008;-95
2023/01/25 20:22:03;;;;;;;72.40;17.08;;;;;;;;;;6172787;23;20020;-95
2023/01/25 20:24:29;;;;;;;68.88;19.27;;;;;;;;;;6196271;23;20012;-96
2023/01/25 20:26:57;;;;;;;62.65;16.50;;;;;;;;;;6172381;23;20008;-96
2023/01/25 20:29:24;;;;;;;88.50;24.60;;;;;;;;;;6172517;23;20020;-96
2023/01/25 20:31:51;;;;;;;76.95;20.17;;;;;;;;;;6197183;23;20031;-94
2023/01/25 20:34:22;;;;;;;74.32;20.30;;;;;;;;;;6197126;23;20337;-96
2023/01/25 20:36:49;;;;;;;65.43;16.48;;;;;;;;;;6197378;23;20088;-97
2023/01/25 20:39:16;;;;;;;87.15;21.30;;;;;;;;;;6196218;23;20051;-95
2023/01/25 20:41:42;;;;;;;84.80;24.20;;;;;;;;;;6196337;23;20024;-95
2023/01/25 20:44:10;;;;;;;97.55;24.13;;;;;;;;;;6196650;23;20005;-96
2023/01/25 20:46:37;;;;;;;76.18;21.08;;;;;;;;;;6196161;23;20005;-96
2023/01/25 20:49:04;;;;;;;87.53;17.83;;;;;;;;;;6196319;23;20426;-96
2023/01/25 20:51:30;;;;;;;91.38;23.83;;;;;;;;;;6197385;23;20333;-96
2023/01/25 20:53:57;;;;;;;68.18;18.90;;;;;;;;;;6171857;23;20001;-96
2023/01/25 20:56:23;;;;;;;88.55;20.10;;;;;;;;;;6196386;23;20008;-96
2023/01/25 20:58:49;;;;;;;66.57;16.33;;;;;;;;;;6173031;23;20059;-95
2023/01/25 21:01:20;;;;;;;51.03;16.75;;;;;;;;;;6172565;23;20012;-96
2023/01/25 21:03:47;;;;;;;69.75;18.58;;;;;;;;;;6195513;22;20017;-96
2023/01/25 21:06:13;;;;;;;64.22;16.40;;;;;;;;;;6197230;23;20012;-95
2023/01/25 21:08:39;;;;;;;61.85;18.85;;;;;;;;;;6196578;23;20016;-94
2023/01/25 21:11:05;;;;;;;67.75;18.95;;;;;;;;;;6171290;23;20016;-96
2023/01/25 21:13:32;;;;;;;34.10;11.13;;;;;;;;;;6171863;23;20095;-96
2023/01/25 21:15:59;;;;;;;50.30;14.13;;;;;;;;;;6196299;23;20001;-95
2023/01/25 21:18:53;;;;;;;40.90;9.88;;;;;;;;;;6196528;23;19996;-96
2023/01/25 21:21:20;;;;;;;72.30;21.48;;;;;;;;;;6183873;23;20005;-96
2023/01/25 21:23:48;;;;;;;37.58;11.50;;;;;;;;;;6197369;23;20030;-96
2023/01/25 21:26:16;;;;;;;67.28;17.73;;;;;;;;;;6196303;23;20015;-96
2023/01/25 21:28:42;;;;;;;34.83;9.73;;;;;;;;;;6195072;23;20004;-96
2023/01/25 21:31:09;;;;;;;43.63;12.77;;;;;;;;;;6197151;23;20036;-96
2023/01/25 21:33:36;;;;;;;30.23;7.47;;;;;;;;;;6197638;23;20004;-96
2023/01/25 21:36:07;;;;;;;70.45;18.15;;;;;;;;;;6232365;23;20008;-96
2023/01/25 21:38:40;;;;;;;47.53;14.57;;;;;;;;;;6206791;23;20456;-94
2023/01/25 21:41:07;;;;;;;27.83;9.63;;;;;;;;;;6210745;23;20028;-96
2023/01/25 21:46:26;;;;;;;62.92;15.07;;;;;;;;;;6224098;23;20015;-94
2023/01/25 21:51:48;;;;;;;45.03;14.68;;;;;;;;;;6223753;23;20463;-95
2023/01/25 21:54:15;;;;;;;50.20;14.32;;;;;;;;;;6199992;23;20028;-95
2023/01/25 21:56:41;;;;;;;50.38;13.85;;;;;;;;;;6199784;23;20056;-95
2023/01/25 21:59:07;;;;;;;16.40;5.18;;;;;;;;;;6176237;23;20009;-96
2023/01/25 22:01:33;;;;;;;34.60;8.85;;;;;;;;;;6176297;23;20078;-94
2023/01/25 22:03:59;;;;;;;27.13;10.48;;;;;;;;;;6198436;22;20013;-95
2023/01/25 22:06:26;;;;;;;43.85;12.25;;;;;;;;;;6168081;23;20020;-95
2023/01/25 22:08:52;;;;;;;50.50;15.57;;;;;;;;;;6168158;23;20345;-95
2023/01/25 22:11:18;;;;;;;60.58;14.05;;;;;;;;;;6193228;23;20008;-95
2023/01/25 22:13:44;;;;;;;53.92;14.60;;;;;;;;;;6167354;23;20460;-95
2023/01/25 22:16:11;;;;;;;40.35;10.80;;;;;;;;;;6167042;23;20037;-94
2023/01/25 22:18:38;;;;;;;50.20;15.27;;;;;;;;;;6192978;23;20040;-96
2023/01/25 22:21:06;;;;;;;49.08;14.88;;;;;;;;;;6168875;23;20303;-94
2023/01/25 22:23:33;;;;;;;35.22;10.50;;;;;;;;;;6190692;23;20013;-95
2023/01/25 22:26:07;;;;;;;25.27;9.00;;;;;;;;;;6191836;23;20005;-96
2023/01/25 22:28:37;;;;;;;45.40;13.52;;;;;;;;;;6190894;23;20013;-95
2023/01/25 22:31:04;;;;;;;19.40;6.38;;;;;;;;;;6191467;23;20005;-95
2023/01/25 22:33:30;;;;;;;27.55;9.38;;;;;;;;;;6168516;23;20092;-94
2023/01/25 22:35:56;;;;;;;47.45;12.45;;;;;;;;;;6193928;23;20009;-93
2023/01/25 22:38:22;;;;;;;45.95;13.30;;;;;;;;;;6170151;23;20009;-95
2023/01/25 22:40:48;;;;;;;36.38;11.27;;;;;;;;;;6202092;23;20000;-95
2023/01/25 22:43:14;;;;;;;33.90;12.25;;;;;;;;;;6178852;23;20004;-93
2023/01/25 22:45:48;;;;;;;18.73;6.00;;;;;;;;;;6179639;23;20326;-95
2023/01/25 22:48:14;;;;;;;45.75;12.80;;;;;;;;;;6203785;23;20138;-96
2023/01/25 22:50:40;;;;;;;40.70;13.35;;;;;;;;;;6181022;23;20500;-94
2023/01/25 22:53:06;;;;;;;33.90;11.55;;;;;;;;;;6209887;23;20008;-96
2023/01/25 22:55:32;;;;;;;34.45;10.63;;;;;;;;;;6219050;23;19993;-96
2023/01/25 22:57:58;;;;;;;47.13;13.00;;;;;;;;;;6194760;23;20009;-96
2023/01/25 23:00:24;;;;;;;43.85;11.65;;;;;;;;;;6217955;23;19996;-95
2023/01/25 23:02:50;;;;;;;37.75;13.05;;;;;;;;;;6183572;23;20016;-96
2023/01/25 23:05:16;;;;;;;28.40;9.13;;;;;;;;;;6182366;22;20031;-96
2023/01/25 23:07:42;;;;;;;33.13;11.25;;;;;;;;;;6175943;23;20012;-96
2023/01/25 23:10:09;;;;;;;41.20;12.18;;;;;;;;;;6200685;23;20005;-96
2023/01/25 23:12:35;;;;;;;37.20;12.73;;;;;;;;;;6200921;23;20001;-96
2023/01/25 23:15:05;;;;;;;33.92;9.38;;;;;;;;;;6176104;23;20005;-96
2023/01/25 23:20:17;;;;;;;25.77;7.70;;;;;;;;;;6204500;23;20096;-96
2023/01/25 23:22:44;;;;;;;33.22;10.25;;;;;;;;;;6200419;23;20013;-96
2023/01/25 23:25:11;;;;;;;38.00;11.15;;;;;;;;;;6200185;23;20377;-94
2023/01/25 23:27:37;;;;;;;44.80;11.43;;;;;;;;;;6198576;23;20004;-96
2023/01/25 23:30:06;;;;;;;29.00;9.95;;;;;;;;;;6198060;23;20004;-94
2023/01/25 23:32:32;;;;;;;27.75;7.97;;;;;;;;;;6197872;23;20421;-95
2023/01/25 23:34:58;;;;;;;34.97;10.60;;;;;;;;;;6173017;23;20039;-95
2023/01/25 23:37:24;;;;;;;29.60;9.88;;;;;;;;;;6197045;23;20008;-96
2023/01/25 23:39:50;;;;;;;48.60;12.98;;;;;;;;;;6197114;23;20035;-96
2023/01/25 23:42:17;;;;;;;13.73;5.95;;;;;;;;;;6172400;23;20043;-95
2023/01/25 23:44:43;;;;;;;27.92;7.80;;;;;;;;;;6196343;23;20012;-95
2023/01/25 23:47:09;;;;;;;21.02;7.53;;;;;;;;;;6197508;23;20044;-94
2023/01/25 23:49:36;;;;;;;17.23;5.82;;;;;;;;;;6197332;23;20009;-95
2023/01/25 23:52:02;;;;;;;29.92;10.30;;;;;;;;;;6173143;23;20009;-96
2023/01/25 23:54:28;;;;;;;32.45;8.88;;;;;;;;;;6197217;23;20001;-95
2023/01/25 23:57:01;;;;;;;34.80;11.75;;;;;;;;;;6170407;23;20007;-97
2023/01/25 23:59:27;;;;;;;39.25;11.13;;;;;;;;;;6172620;23;20438;-96
